This is the latest recevied weather packets stored in our database for station/object HS5NMF. If no packets are shown the sender has not sent any weather packets the latest 10 day(s).
| Time | Temp. | Humidity | Pressure | Rain* | Wind** | Luminosity | Snow |
|---|---|---|---|---|---|---|---|
| 1778142186 | 30.56° C | 65% | 974 hPa | - | - | 0 W/m² | - |
| 1778141863 | 28.89° C | 68% | 974 hPa | - | - | 0 W/m² | - |
| 1778141541 | 28.89° C | 67% | 974 hPa | - | - | 0 W/m² | - |
| 1778141219 | 31.11° C | 64% | 974 hPa | - | - | 0 W/m² | - |
| 1778140896 | 33.33° C | 55% | 974 hPa | - | - | 0 W/m² | - |
| 1778140574 | 35° C | 53% | 974 hPa | - | - | 0 W/m² | - |
| 1778140250 | 36.67° C | 51% | 974 hPa | - | - | 0 W/m² | - |
| 1778139929 | 38.33° C | 49% | 974 hPa | - | - | 0 W/m² | - |
| 1778139607 | 38.33° C | 48% | 974 hPa | - | - | 0 W/m² | - |
| 1778139283 | 37.78° C | 50% | 974 hPa | - | - | 0 W/m² | - |
| 1778138960 | 38.33° C | 50% | 974 hPa | - | - | 0 W/m² | - |
| 1778138638 | 37.78° C | 51% | 974 hPa | - | - | 0 W/m² | - |
| 1778138315 | 37.78° C | 50% | 974 hPa | - | - | 0 W/m² | - |
| 1778137993 | 37.22° C | 52% | 974 hPa | - | - | 0 W/m² | - |
| 1778137671 | 37.22° C | 53% | 974 hPa | - | - | 0 W/m² | - |
| 1778137349 | 36.67° C | 54% | 974 hPa | - | - | 0 W/m² | - |
| 1778137026 | 36.67° C | 54% | 974 hPa | - | - | 0 W/m² | - |
| 1778136686 | 36.67° C | 54% | 974 hPa | - | - | 0 W/m² | - |
| 1778136362 | 36.67° C | 53% | 975 hPa | - | - | 0 W/m² | - |
| 1778136042 | 36.67° C | 53% | 975 hPa | - | - | 0 W/m² | - |
| 1778135717 | 36.67° C | 54% | 975 hPa | - | - | 0 W/m² | - |
| 1778135393 | 36.67° C | 54% | 975 hPa | - | - | 0 W/m² | - |
| 1778135070 | 37.22° C | 52% | 975 hPa | - | - | 0 W/m² | - |
| 1778134748 | 37.78° C | 51% | 975 hPa | - | - | 0 W/m² | - |
| 1778134426 | 37.78° C | 51% | 975 hPa | - | - | 0 W/m² | - |
* Rain since midnight (hover to see other rain measurements)
** Current wind speed in m/s (hover to see current wind gust speed)